Archival Weather

Republic

Farmingdale, New York (KFRG)

Report from: Monday, February 12, 2024 1:53 PM EST
Current time: Friday, June 14, 2024 8:27 AM EDT

Current weather – Weather history – Daily summaries
Weather forecast

Temperature7.2°C (45.0°F)
Wind chill5.9°C (42.6°F)
Dew point-1.1°C (30.0°F)
Winds 4 kts (2.1 m/s, 4.6 mph) West (270°)
Visibility10 mi. (16.1 km)
Clouds Sky clear
Altimeter29.85 in.Hg (1011 mB)
Relative humidity56 %
Density altitude-764 ft. (-233 m)
Sea-level pressure101.1 kPa (1011 mB, 29.85 in.Hg)
Remarks Fully automated report
Automated weather observing station without precipitation discriminator
Flight conditions Visual Meteorological Conditions
Raw dataKFRG 121853Z AUTO 27004KT 10SM CLR 07/M01 A2985 RMK AO1 SLP107 T00721011
An error has occurred. This application may no longer respond until reloaded. Reload 🗙